Thunder radar more information blitzortung!


Radar de pluja more information rain snow radar


Visita la nostra xarxa de llocs de meteo:

Template documentation
and downloads

And another site



No particular awareness of the weather is required.    There are no Weather-warnings

Pagina Historial Weather Underground text

Diari Resum Juny 29, 2017 Unitats:  Imperial    Mètric   Tant
« Previous Dia
SegĂźent Dia »
Diari Setmana Mensual Anual Personalitzada
  Maxima: Minima: Media:
Temperatura: 80.4 °F 59.2 °F 72.5 °F
Punt de rosada: 55.4 °F 35.4 °F 43.7 °F
Humitat: 77 % 22 % 38 %
Wind Speed: 20.7 mph 0 mph 5.7 mph
RĂ fegues de vent: 20.7 mph - -
Vent:- - SW
Pression baro: 29.8 in 29.7 in -
Precipitacions: 0 in    
Historical Graphs
 
 
Dades de taula per Juny 29, 2017
Temps Temperatura Punt de rosada Pression baro Vent Wind Speed RĂ fegues de vent Humitat Rainfall Rate (Hourly)
00:00 65.8 °F 55 °F 29.7 in NNE 4.6 mph 4.6 mph 68 % 0 in
00:05 65.8 °F 55.4 °F 29.7 in ENE 3.5 mph 3.5 mph 69 % 0 in
00:06 65.8 °F 55.4 °F 29.7 in NNE 4 mph 4 mph 69 % 0 in
00:15 60.4 °F 53.2 °F 29.7 in SW 1 mph 2 mph 77 % 0 in
00:25 60.1 °F 52.5 °F 29.7 in SW 1 mph 2 mph 76 % 0 in
00:35 59.9 °F 52.3 °F 29.7 in SW 2 mph 2 mph 76 % 0 in
00:45 60.4 °F 52.2 °F 29.7 in WSW 2 mph 3 mph 74 % 0 in
00:55 60.8 °F 52.5 °F 29.7 in WSW 1 mph 2 mph 74 % 0 in
01:05 60.4 °F 52.2 °F 29.7 in Calm   1 mph 74 % 0 in
01:15 59.9 °F 51.6 °F 29.7 in Calm   2 mph 74 % 0 in
01:25 59.7 °F 51.8 °F 29.7 in Calm   1 mph 75 % 0 in
01:35 59.4 °F 51.1 °F 29.7 in West 1 mph 3 mph 74 % 0 in
01:45 59.2 °F 50.9 °F 29.7 in WSW 1 mph 3 mph 74 % 0 in
01:55 60.1 °F 51.8 °F 29.7 in NNE 2 mph 2 mph 74 % 0 in
02:05 61.5 °F 51.6 °F 29.7 in East 2 mph 3 mph 70 % 0 in
02:15 62.1 °F 51.1 °F 29.7 in SE 2 mph 3 mph 67 % 0 in
02:25 63.3 °F 50.5 °F 29.7 in ENE 2 mph 3 mph 63 % 0 in
02:35 63 °F 50.5 °F 29.7 in ENE 2 mph 3 mph 64 % 0 in
02:45 64 °F 51.3 °F 29.7 in SSE 1 mph 3 mph 63 % 0 in
02:55 64.4 °F 51.1 °F 29.7 in SSE 1 mph 2 mph 62 % 0 in
03:05 64.8 °F 51.1 °F 29.7 in WSW 2 mph 3 mph 61 % 0 in
03:15 64.9 °F 50.7 °F 29.7 in West 2 mph 5 mph 60 % 0 in
03:25 64.9 °F 49.8 °F 29.7 in West 3 mph 4 mph 58 % 0 in
03:35 65.5 °F 49.8 °F 29.7 in West 5 mph 6 mph 57 % 0 in
03:45 65.7 °F 49.5 °F 29.7 in WSW 3 mph 3 mph 56 % 0 in
03:55 65.7 °F 48.9 °F 29.7 in WSW 6 mph 7 mph 55 % 0 in
04:05 66 °F 48.9 °F 29.7 in West 2 mph 6 mph 54 % 0 in
04:15 66.9 °F 49.3 °F 29.7 in West 3 mph 6 mph 53 % 0 in
04:25 67.5 °F 49.3 °F 29.7 in West 3 mph 6 mph 52 % 0 in
04:35 67.1 °F 47.8 °F 29.7 in WSW 3 mph 11 mph 50 % 0 in
04:45 68.2 °F 48.7 °F 29.7 in WSW 3 mph 6 mph 50 % 0 in
04:55 68.4 °F 48.6 °F 29.7 in WSW 3 mph 8 mph 49 % 0 in
05:05 69.1 °F 49.1 °F 29.7 in West 3 mph 4 mph 49 % 0 in
05:15 70 °F 49.5 °F 29.7 in WSW 2 mph 3 mph 48 % 0 in
05:25 70.7 °F 49.5 °F 29.7 in West 3 mph 8 mph 47 % 0 in
05:35 71.6 °F 49.6 °F 29.7 in West 3 mph 4 mph 46 % 0 in
05:45 72.7 °F 50.2 °F 29.7 in West 6 mph 6 mph 45 % 0 in
05:55 72.5 °F 48 °F 29.7 in WSW 3 mph 8 mph 42 % 0 in
06:05 73 °F 47.3 °F 29.7 in WSW 2 mph 5 mph 40 % 0 in
06:15 72.9 °F 46.4 °F 29.7 in WSW 5 mph 8 mph 39 % 0 in
11:16 73.4 °F 46.2 °F 29.7 in SW 20.7 mph 20.7 mph 38 % 0 in
11:21 73.4 °F 45.5 °F 29.7 in WNW 7.4 mph 7.4 mph 37 % 0 in
11:26 73.9 °F 46 °F 29.7 in SW 8.1 mph 8.1 mph 37 % 0 in
11:31 73.6 °F 45.7 °F 29.7 in SW 12.7 mph 12.7 mph 37 % 0 in
11:36 74.1 °F 46.2 °F 29.7 in WSW 9.2 mph 9.2 mph 37 % 0 in
11:41 74.3 °F 46.2 °F 29.7 in WSW 5.8 mph 5.8 mph 37 % 0 in
11:46 75.2 °F 47.1 °F 29.7 in East 4.6 mph 4.6 mph 37 % 0 in
11:51 75.6 °F 46.8 °F 29.7 in SW 8.1 mph 8.1 mph 36 % 0 in
11:56 75.7 °F 47.7 °F 29.7 in West 4 mph 4 mph 37 % 0 in
12:01 75 °F 46.2 °F 29.7 in WSW 6.9 mph 6.9 mph 36 % 0 in
12:06 75.7 °F 46 °F 29.7 in SW 7.6 mph 7.6 mph 35 % 0 in
12:11 75.6 °F 45.1 °F 29.7 in WSW 8.1 mph 8.1 mph 34 % 0 in
12:16 75.9 °F 45.5 °F 29.7 in SW 8.1 mph 8.1 mph 34 % 0 in
12:17 76.1 °F 45.7 °F 29.7 in West 6.2 mph 6.2 mph 34 % 0 in
12:22 75.4 °F 43.5 °F 29.7 in West 7.8 mph 7.8 mph 32 % 0 in
12:27 75.9 °F 43.9 °F 29.7 in SW 4.6 mph 4.6 mph 32 % 0 in
12:32 76.3 °F 45.1 °F 29.7 in SSW 9.2 mph 9.2 mph 33 % 0 in
12:37 76.5 °F 44.4 °F 29.7 in WNW 8.1 mph 8.1 mph 32 % 0 in
12:42 76.3 °F 43.3 °F 29.7 in SW 8.1 mph 8.1 mph 31 % 0 in
12:47 76.1 °F 43.3 °F 29.7 in WSW 9.2 mph 9.2 mph 31 % 0 in
12:52 75.7 °F 43 °F 29.7 in WNW 6.9 mph 6.9 mph 31 % 0 in
12:57 77 °F 43.2 °F 29.7 in West 4.7 mph 4.7 mph 30 % 0 in
13:02 77.4 °F 44.4 °F 29.7 in WSW 5.8 mph 5.8 mph 31 % 0 in
13:07 77.5 °F 44.4 °F 29.7 in West 9.2 mph 9.2 mph 31 % 0 in
13:12 77.7 °F 43.9 °F 29.7 in WSW 10.5 mph 10.5 mph 30 % 0 in
13:17 77.5 °F 43.5 °F 29.7 in West 8.7 mph 8.7 mph 30 % 0 in
13:22 77.9 °F 44.1 °F 29.7 in SW 6 mph 6 mph 30 % 0 in
13:27 77.5 °F 42.8 °F 29.7 in WSW 7.8 mph 7.8 mph 29 % 0 in
13:32 77.7 °F 43 °F 29.7 in West 8.1 mph 8.1 mph 29 % 0 in
13:37 78.8 °F 43.9 °F 29.7 in NNW 3.5 mph 3.6 mph 29 % 0 in
13:42 77.5 °F 42.8 °F 29.7 in WNW 9.2 mph 9.2 mph 29 % 0 in
13:47 77.4 °F 41.7 °F 29.7 in WSW 12.7 mph 12.7 mph 28 % 0 in
13:52 77.9 °F 42.3 °F 29.7 in WSW 7.6 mph 7.6 mph 28 % 0 in
13:57 77.9 °F 42.3 °F 29.7 in West 9.2 mph 9.2 mph 28 % 0 in
14:02 78.3 °F 42.4 °F 29.7 in West 8.1 mph 8.1 mph 28 % 0 in
14:07 78.6 °F 42.8 °F 29.7 in WSW 4.6 mph 4.6 mph 28 % 0 in
14:12 79 °F 43.2 °F 29.7 in SW 6.9 mph 6.9 mph 28 % 0 in
14:17 79.2 °F 43.2 °F 29.7 in SW 5.8 mph 5.8 mph 28 % 0 in
14:22 78.6 °F 42.8 °F 29.7 in West 9.7 mph 9.7 mph 28 % 0 in
14:27 78.6 °F 41.7 °F 29.7 in WSW 10.4 mph 10.4 mph 27 % 0 in
14:32 78.6 °F 41.7 °F 29.7 in SW 10.4 mph 10.4 mph 27 % 0 in
14:37 78.8 °F 42.1 °F 29.7 in SSE 4.3 mph 4.3 mph 27 % 0 in
14:42 79.2 °F 42.3 °F 29.7 in South 9.2 mph 9.2 mph 27 % 0 in
14:47 79.7 °F 42.8 °F 29.7 in West 5.8 mph 5.8 mph 27 % 0 in
14:52 79 °F 43.2 °F 29.7 in WSW 5.6 mph 5.6 mph 28 % 0 in
14:57 79 °F 42.1 °F 29.7 in West 5.8 mph 5.8 mph 27 % 0 in
15:02 79.3 °F 42.4 °F 29.7 in WSW 8.1 mph 8.1 mph 27 % 0 in
15:05 80.2 °F 43.2 °F 29.7 in South 4.9 mph 4.9 mph 27 % 0 in
15:10 79.7 °F 42.8 °F 29.7 in WSW 9.2 mph 9.2 mph 27 % 0 in
15:15 79.7 °F 42.8 °F 29.7 in WNW 12.3 mph 12.3 mph 27 % 0 in
15:20 79.9 °F 43 °F 29.7 in SW 12.7 mph 12.7 mph 27 % 0 in
15:25 79.7 °F 41.7 °F 29.7 in WSW 8.1 mph 8.1 mph 26 % 0 in
15:30 79.7 °F 42.8 °F 29.7 in South 9.2 mph 9.2 mph 27 % 0 in
15:35 78.4 °F 41.7 °F 29.7 in SW 6 mph 6 mph 27 % 0 in
15:40 77.9 °F 40.3 °F 29.7 in SSW 9.2 mph 9.2 mph 26 % 0 in
15:45 77.5 °F 40.8 °F 29.7 in WSW 8.1 mph 8.1 mph 27 % 0 in
15:46 77.5 °F 39.9 °F 29.7 in West 11.5 mph 11.5 mph 26 % 0 in
15:51 79 °F 41.2 °F 29.7 in West 8.1 mph 8.1 mph 26 % 0 in
15:56 78.1 °F 40.5 °F 29.7 in WSW 5.8 mph 5.8 mph 26 % 0 in
16:01 79.2 °F 41.4 °F 29.7 in West 5.8 mph 5.8 mph 26 % 0 in
16:06 79.9 °F 43 °F 29.7 in WSW 12.7 mph 12.7 mph 27 % 0 in
16:11 79.7 °F 41.7 °F 29.7 in WSW 9.2 mph 9.2 mph 26 % 0 in
16:16 80.1 °F 42.1 °F 29.7 in NNW 5.8 mph 5.8 mph 26 % 0 in
16:21 79.5 °F 41.5 °F 29.7 in WSW 10.4 mph 10.4 mph 26 % 0 in
16:26 80.1 °F 42.1 °F 29.7 in West 10.2 mph 10.2 mph 26 % 0 in
16:31 79.9 °F 41.9 °F 29.7 in SW 5.9 mph 5.9 mph 26 % 0 in
16:36 79.7 °F 41.7 °F 29.7 in NNW 10.4 mph 10.4 mph 26 % 0 in
16:41 79.5 °F 41.5 °F 29.7 in NNW 10.4 mph 10.4 mph 26 % 0 in
16:46 78.3 °F 40.5 °F 29.7 in West 5.8 mph 5.8 mph 26 % 0 in
16:51 79.2 °F 41.4 °F 29.7 in WNW 11.5 mph 11.5 mph 26 % 0 in
16:56 79.9 °F 40.8 °F 29.7 in SW 9.2 mph 9.2 mph 25 % 0 in
17:01 79.3 °F 40.5 °F 29.7 in WSW 8.1 mph 8.1 mph 25 % 0 in
17:06 79.7 °F 40.8 °F 29.7 in West 15 mph 15 mph 25 % 0 in
17:07 79.9 °F 40.8 °F 29.7 in SW 5.8 mph 5.8 mph 25 % 0 in
17:12 80.4 °F 41.4 °F 29.7 in WSW 10.5 mph 10.5 mph 25 % 0 in
17:17 79.7 °F 40.8 °F 29.7 in SW 8.1 mph 8.1 mph 25 % 0 in
17:22 80.1 °F 41.2 °F 29.7 in West 5.8 mph 5.8 mph 25 % 0 in
17:27 79.9 °F 40.8 °F 29.7 in WNW 8.1 mph 8.1 mph 25 % 0 in
17:32 80.2 °F 41.2 °F 29.7 in WSW 9.2 mph 9.2 mph 25 % 0 in
17:37 80.4 °F 40.3 °F 29.7 in WSW 15 mph 15 mph 24 % 0 in
17:42 79.5 °F 39.6 °F 29.7 in WSW 6.9 mph 6.9 mph 24 % 0 in
17:47 79.7 °F 39.7 °F 29.7 in West 8.1 mph 8.1 mph 24 % 0 in
17:52 79.9 °F 39.9 °F 29.7 in WSW 9.2 mph 9.2 mph 24 % 0 in
17:57 80.1 °F 39.9 °F 29.7 in WSW 5.8 mph 5.8 mph 24 % 0 in
18:02 80.2 °F 40.3 °F 29.7 in West 9.2 mph 9.2 mph 24 % 0 in
18:07 80.4 °F 40.3 °F 29.7 in West 11.5 mph 11.5 mph 24 % 0 in
18:12 79.9 °F 39.9 °F 29.7 in WSW 8.1 mph 8.1 mph 24 % 0 in
18:17 80.1 °F 39.9 °F 29.7 in WSW 6.9 mph 6.9 mph 24 % 0 in
18:22 79.2 °F 38.1 °F 29.7 in NW 9.2 mph 9.2 mph 23 % 0 in
18:27 79.7 °F 38.7 °F 29.7 in SSW 9.2 mph 9.2 mph 23 % 0 in
18:32 79.5 °F 38.5 °F 29.7 in WSW 13.8 mph 13.8 mph 23 % 0 in
18:37 79 °F 36.9 °F 29.7 in West 9.2 mph 9.2 mph 22 % 0 in
18:42 79 °F 36.9 °F 29.7 in WSW 6.9 mph 6.9 mph 22 % 0 in
18:47 79 °F 36.9 °F 29.7 in West 9.2 mph 9.2 mph 22 % 0 in
18:52 78.8 °F 36.7 °F 29.7 in West 9.4 mph 9.4 mph 22 % 0 in
18:57 78.6 °F 36.7 °F 29.7 in West 5.8 mph 5.8 mph 22 % 0 in
19:02 78.6 °F 36.7 °F 29.7 in WSW 6.9 mph 6.9 mph 22 % 0 in
19:07 78.8 °F 36.7 °F 29.7 in SW 8.1 mph 8.1 mph 22 % 0 in
19:12 78.6 °F 36.7 °F 29.7 in SW 8.1 mph 8.1 mph 22 % 0 in
19:17 78.4 °F 36.3 °F 29.7 in SW 2.3 mph 2.3 mph 22 % 0 in
19:22 78.4 °F 36.3 °F 29.7 in WNW 12.7 mph 12.7 mph 22 % 0 in
19:27 77.9 °F 36 °F 29.7 in WNW 9.2 mph 9.2 mph 22 % 0 in
19:32 78.1 °F 36.1 °F 29.7 in NW 9.2 mph 9.2 mph 22 % 0 in
19:35 65.8 °F 46.8 °F 29.8 in East 2 mph 4 mph 50 % 0 in
19:37 78.1 °F 36.1 °F 29.7 in WSW 5.8 mph 5.8 mph 22 % 0 in
19:42 77.9 °F 36 °F 29.7 in West 4.6 mph 4.6 mph 22 % 0 in
19:45 65.5 °F 45.9 °F 29.8 in East 2 mph 3 mph 49 % 0 in
19:47 78.1 °F 37.2 °F 29.7 in WSW 4.6 mph 4.6 mph 23 % 0 in
19:52 77.9 °F 37 °F 29.7 in WSW 8.1 mph 8.1 mph 23 % 0 in
19:55 65.3 °F 45.7 °F 29.8 in East 5 mph 5 mph 49 % 0 in
19:57 77.5 °F 35.8 °F 29.7 in West 5.8 mph 5.8 mph 22 % 0 in
20:02 77.5 °F 35.8 °F 29.7 in SSE 3.5 mph 3.5 mph 22 % 0 in
20:05 65.3 °F 45.7 °F 29.8 in ENE 2 mph 6 mph 49 % 0 in
20:07 77.2 °F 35.4 °F 29.7 in SW 8.1 mph 8.1 mph 22 % 0 in
20:12 76.8 °F 36.1 °F 29.7 in West 8.1 mph 8.1 mph 23 % 0 in
20:15 64.9 °F 45.3 °F 29.8 in NE 2 mph 3 mph 49 % 0 in
20:17 76.6 °F 36 °F 29.7 in SSE 4.6 mph 4.6 mph 23 % 0 in
20:22 76.5 °F 36 °F 29.7 in WNW 7.6 mph 7.6 mph 23 % 0 in
20:25 64.8 °F 45.1 °F 29.8 in NE 2 mph 4 mph 49 % 0 in
20:27 76.5 °F 37 °F 29.7 in WSW 6.2 mph 6.2 mph 24 % 0 in
20:32 76.3 °F 36.9 °F 29.7 in South 3.5 mph 3.5 mph 24 % 0 in
20:35 64.6 °F 45 °F 29.8 in East 3 mph 3 mph 49 % 0 in
20:37 75.9 °F 37.6 °F 29.7 in West 4.6 mph 4.6 mph 25 % 0 in
20:42 74.8 °F 39.6 °F 29.7 in South 6.9 mph 6.9 mph 28 % 0 in
20:45 64.6 °F 45 °F 29.8 in ESE 3 mph 6 mph 49 % 0 in
20:47 74.1 °F 38.8 °F 29.7 in SW 7.6 mph 7.6 mph 28 % 0 in
20:52 73.8 °F 39.6 °F 29.7 in SW 12.7 mph 12.7 mph 29 % 0 in
20:55 64.6 °F 45 °F 29.8 in East 2 mph 4 mph 49 % 0 in
20:57 73.4 °F 40.1 °F 29.7 in SW 8.1 mph 8.1 mph 30 % 0 in
21:02 73 °F 40.6 °F 29.7 in SSW 8.1 mph 8.1 mph 31 % 0 in
21:05 64.4 °F 44.2 °F 29.8 in ENE 3 mph 5 mph 48 % 0 in
21:07 72.7 °F 40.3 °F 29.7 in SW 6 mph 6 mph 31 % 0 in
21:12 72.3 °F 40.8 °F 29.7 in SW 4.6 mph 4.6 mph 32 % 0 in
21:15 64.2 °F 44.1 °F 29.8 in NE 2 mph 4 mph 48 % 0 in
21:17 72.1 °F 40.6 °F 29.7 in SSW 9.2 mph 9.2 mph 32 % 0 in
21:22 71.8 °F 41.2 °F 29.7 in SW 6.9 mph 6.9 mph 33 % 0 in
21:25 63.9 °F 44.2 °F 29.8 in NE 2 mph 4 mph 49 % 0 in
21:27 71.6 °F 41.7 °F 29.7 in WSW 3.5 mph 3.6 mph 34 % 0 in
21:32 71.4 °F 41.5 °F 29.7 in SW 6.9 mph 6.9 mph 34 % 0 in
21:35 63.7 °F 44.2 °F 29.8 in NE 1 mph 3 mph 49 % 0 in
21:37 71.2 °F 42.3 °F 29.7 in SW 5.8 mph 5.8 mph 35 % 0 in
21:42 70.9 °F 41.9 °F 29.7 in SSW 5.8 mph 5.8 mph 35 % 0 in
21:45 63.5 °F 44.1 °F 29.8 in Calm   3 mph 49 % 0 in
21:47 70.7 °F 42.4 °F 29.7 in SW 5.8 mph 5.8 mph 36 % 0 in
21:52 70.5 °F 42.3 °F 29.7 in SW 4.6 mph 4.6 mph 36 % 0 in
21:55 63.1 °F 43.7 °F 29.8 in Calm   1 mph 49 % 0 in
21:57 70.3 °F 42.8 °F 29.7 in SW 4.6 mph 4.6 mph 37 % 0 in
22:02 70.2 °F 43.3 °F 29.7 in West 4.6 mph 4.6 mph 38 % 0 in
22:05 63 °F 43.5 °F 29.8 in ENE 2 mph 2 mph 49 % 0 in
22:07 70.2 °F 44.1 °F 29.7 in SW 4.6 mph 4.6 mph 39 % 0 in
22:12 69.8 °F 43.7 °F 29.8 in WSW 5.8 mph 5.8 mph 39 % 0 in
22:15 62.6 °F 43.2 °F 29.8 in ENE 1 mph 2 mph 49 % 0 in
22:17 69.6 °F 44.2 °F 29.8 in SW 3.5 mph 3.6 mph 40 % 0 in
22:22 69.3 °F 44.4 °F 29.8 in SW 4.6 mph 4.6 mph 41 % 0 in
22:25 62.4 °F 44.1 °F 29.8 in NE 1 mph 2 mph 51 % 0 in
22:27 69.1 °F 44.4 °F 29.7 in SW 4.6 mph 4.6 mph 41 % 0 in
22:32 69.1 °F 45 °F 29.7 in SW 3.5 mph 3.5 mph 42 % 0 in
22:35 62.2 °F 43.9 °F 29.8 in ENE 1 mph 3 mph 51 % 0 in
22:37 68.9 °F 45 °F 29.7 in West 6.9 mph 6.9 mph 42 % 0 in
22:42 68.7 °F 45.3 °F 29.8 in WSW 3.5 mph 3.5 mph 43 % 0 in
22:45 62.2 °F 43.9 °F 29.8 in ENE 1 mph 3 mph 51 % 0 in
22:47 68.5 °F 45.1 °F 29.8 in SW 3.5 mph 3.5 mph 43 % 0 in
22:52 68.4 °F 45.7 °F 29.8 in SW 3.5 mph 3.5 mph 44 % 0 in
22:55 62.2 °F 43.9 °F 29.8 in ENE 2 mph 3 mph 51 % 0 in
22:57 68.2 °F 45.3 °F 29.8 in SW 2.9 mph 2.9 mph 44 % 0 in
23:02 68 °F 45.9 °F 29.8 in WSW 3.6 mph 3.6 mph 45 % 0 in
23:05 62.4 °F 44.1 °F 29.8 in ENE 3 mph 3 mph 51 % 0 in
23:07 68 °F 45.9 °F 29.8 in SW 2.9 mph 2.9 mph 45 % 0 in
23:12 67.8 °F 45.7 °F 29.8 in SSW 3.1 mph 3.1 mph 45 % 0 in
23:15 62.2 °F 44.4 °F 29.8 in ENE 2 mph 2 mph 52 % 0 in
23:17 67.6 °F 46 °F 29.8 in SW 2.3 mph 2.3 mph 46 % 0 in
23:22 67.6 °F 46 °F 29.8 in SW 2.3 mph 2.3 mph 46 % 0 in
23:25 62.2 °F 44.4 °F 29.8 in NE 2 mph 3 mph 52 % 0 in
23:27 67.5 °F 45.9 °F 29.8 in SW 2.3 mph 2.3 mph 46 % 0 in
23:32 67.5 °F 46.6 °F 29.8 in West 1.2 mph   47 % 0 in
23:35 62.1 °F 44.2 °F 29.8 in Calm   3 mph 52 % 0 in
23:37 67.5 °F 47.1 °F 29.8 in NE 1.2 mph 1.2 mph 48 % 0 in
23:42 67.5 °F 47.1 °F 29.8 in ENE 2.3 mph 2.3 mph 48 % 0 in
23:45 61.9 °F 44.1 °F 29.8 in Calm   3 mph 52 % 0 in
23:47 67.5 °F 47.1 °F 29.8 in ENE 3.5 mph 3.5 mph 48 % 0 in
23:52 67.5 °F 47.1 °F 29.8 in ENE 2.3 mph 2.3 mph 48 % 0 in
23:55 61.5 °F 43.7 °F 29.8 in NE 2 mph 3 mph 52 % 0 in
23:57 67.3 °F 46.9 °F 29.8 in ENE 2.3 mph 2.3 mph 48 % 0 in
Meteo Sesrovires
Elogis d' Weather Underground - 3.75 mb

Guio original per  Jim McMurry - jmcmurry@mwt.net Adaptat per a la plantilla per  Wim van der Kuil - Leuven-Template.eu

Trobareu la nostra informacio del temps tambe a:

Weather Underground

AWEKAS